sensor_id;sensor_type;location;lat;lon;timestamp;temperature;humidity
15455;DHT22;21057;51.024;7.540;2023-02-14T00:01:11;6.00;99.90
15455;DHT22;21057;51.024;7.540;2023-02-14T00:03:38;6.00;99.90
15455;DHT22;21057;51.024;7.540;2023-02-14T00:06:07;6.00;99.90
15455;DHT22;21057;51.024;7.540;2023-02-14T00:08:34;6.00;99.90
15455;DHT22;21057;51.024;7.540;2023-02-14T00:11:01;5.90;99.90
15455;DHT22;21057;51.024;7.540;2023-02-14T00:13:29;5.90;99.90
15455;DHT22;21057;51.024;7.540;2023-02-14T00:15:58;6.00;99.90
15455;DHT22;21057;51.024;7.540;2023-02-14T00:18:24;6.00;99.90
15455;DHT22;21057;51.024;7.540;2023-02-14T00:21:11;6.00;99.90
15455;DHT22;21057;51.024;7.540;2023-02-14T00:23:38;5.90;99.90
15455;DHT22;21057;51.024;7.540;2023-02-14T00:26:12;5.90;99.90
15455;DHT22;21057;51.024;7.540;2023-02-14T00:28:38;5.90;99.90
15455;DHT22;21057;51.024;7.540;2023-02-14T00:31:07;5.90;99.90
15455;DHT22;21057;51.024;7.540;2023-02-14T00:33:33;6.00;99.90
15455;DHT22;21057;51.024;7.540;2023-02-14T00:36:01;6.10;99.90
15455;DHT22;21057;51.024;7.540;2023-02-14T00:38:28;6.10;99.90
15455;DHT22;21057;51.024;7.540;2023-02-14T00:40:55;6.10;99.90
15455;DHT22;21057;51.024;7.540;2023-02-14T00:43:22;6.00;99.90
15455;DHT22;21057;51.024;7.540;2023-02-14T00:45:50;5.60;99.90
15455;DHT22;21057;51.024;7.540;2023-02-14T00:48:18;5.40;99.90
15455;DHT22;21057;51.024;7.540;2023-02-14T00:50:45;5.20;99.90
15455;DHT22;21057;51.024;7.540;2023-02-14T00:53:12;5.00;99.90
15455;DHT22;21057;51.024;7.540;2023-02-14T00:55:40;5.10;99.90
15455;DHT22;21057;51.024;7.540;2023-02-14T00:58:09;5.20;99.90
15455;DHT22;21057;51.024;7.540;2023-02-14T01:00:36;5.20;99.90
15455;DHT22;21057;51.024;7.540;2023-02-14T01:03:03;5.20;99.90
15455;DHT22;21057;51.024;7.540;2023-02-14T01:05:31;5.00;99.90
15455;DHT22;21057;51.024;7.540;2023-02-14T01:07:58;4.80;99.90
15455;DHT22;21057;51.024;7.540;2023-02-14T01:10:25;4.70;99.90
15455;DHT22;21057;51.024;7.540;2023-02-14T01:12:51;4.60;99.90
15455;DHT22;21057;51.024;7.540;2023-02-14T01:15:18;4.50;99.90
15455;DHT22;21057;51.024;7.540;2023-02-14T01:17:47;4.40;99.90
15455;DHT22;21057;51.024;7.540;2023-02-14T01:20:14;4.20;99.90
15455;DHT22;21057;51.024;7.540;2023-02-14T01:22:42;4.20;99.90
15455;DHT22;21057;51.024;7.540;2023-02-14T01:25:09;4.40;99.90
15455;DHT22;21057;51.024;7.540;2023-02-14T01:27:36;4.20;99.90
15455;DHT22;21057;51.024;7.540;2023-02-14T01:30:04;4.10;99.90
15455;DHT22;21057;51.024;7.540;2023-02-14T01:32:31;4.00;99.90
15455;DHT22;21057;51.024;7.540;2023-02-14T01:34:58;3.90;99.90
15455;DHT22;21057;51.024;7.540;2023-02-14T01:37:25;4.00;99.90
15455;DHT22;21057;51.024;7.540;2023-02-14T01:39:54;3.90;99.90
15455;DHT22;21057;51.024;7.540;2023-02-14T01:42:21;4.00;99.90
15455;DHT22;21057;51.024;7.540;2023-02-14T01:44:58;4.10;99.90
15455;DHT22;21057;51.024;7.540;2023-02-14T01:47:26;4.20;99.90
15455;DHT22;21057;51.024;7.540;2023-02-14T01:49:56;4.20;99.90
15455;DHT22;21057;51.024;7.540;2023-02-14T01:52:28;4.30;99.90
15455;DHT22;21057;51.024;7.540;2023-02-14T01:55:00;4.60;99.90
15455;DHT22;21057;51.024;7.540;2023-02-14T01:57:38;4.80;99.90
15455;DHT22;21057;51.024;7.540;2023-02-14T02:00:07;4.90;99.90
15455;DHT22;21057;51.024;7.540;2023-02-14T02:02:55;5.00;99.90
15455;DHT22;21057;51.024;7.540;2023-02-14T02:05:23;4.90;99.90
15455;DHT22;21057;51.024;7.540;2023-02-14T02:07:50;4.90;99.90
15455;DHT22;21057;51.024;7.540;2023-02-14T02:10:19;5.00;99.90
15455;DHT22;21057;51.024;7.540;2023-02-14T02:12:50;4.90;99.90
15455;DHT22;21057;51.024;7.540;2023-02-14T02:15:18;4.90;99.90
15455;DHT22;21057;51.024;7.540;2023-02-14T02:17:51;5.00;99.90
15455;DHT22;21057;51.024;7.540;2023-02-14T02:20:50;4.90;99.90
15455;DHT22;21057;51.024;7.540;2023-02-14T02:23:46;4.80;99.90
15455;DHT22;21057;51.024;7.540;2023-02-14T02:26:38;4.60;99.90
15455;DHT22;21057;51.024;7.540;2023-02-14T02:29:36;4.60;99.90
15455;DHT22;21057;51.024;7.540;2023-02-14T02:32:38;4.80;99.90
15455;DHT22;21057;51.024;7.540;2023-02-14T02:35:23;4.80;99.90
15455;DHT22;21057;51.024;7.540;2023-02-14T02:38:04;5.00;99.90
15455;DHT22;21057;51.024;7.540;2023-02-14T02:40:44;5.20;99.90
15455;DHT22;21057;51.024;7.540;2023-02-14T02:43:24;5.30;99.90
15455;DHT22;21057;51.024;7.540;2023-02-14T02:45:58;5.20;99.90
15455;DHT22;21057;51.024;7.540;2023-02-14T02:48:47;5.40;99.90
15455;DHT22;21057;51.024;7.540;2023-02-14T02:51:22;5.40;99.90
15455;DHT22;21057;51.024;7.540;2023-02-14T02:54:13;5.30;99.90
15455;DHT22;21057;51.024;7.540;2023-02-14T02:56:46;5.50;99.90
15455;DHT22;21057;51.024;7.540;2023-02-14T02:59:23;5.50;99.90
15455;DHT22;21057;51.024;7.540;2023-02-14T03:01:55;5.40;99.90
15455;DHT22;21057;51.024;7.540;2023-02-14T03:04:24;5.40;99.90
15455;DHT22;21057;51.024;7.540;2023-02-14T03:07:10;5.40;99.90
15455;DHT22;21057;51.024;7.540;2023-02-14T03:09:57;5.50;99.90
15455;DHT22;21057;51.024;7.540;2023-02-14T03:12:53;5.50;99.90
15455;DHT22;21057;51.024;7.540;2023-02-14T03:15:38;5.30;99.90
15455;DHT22;21057;51.024;7.540;2023-02-14T03:18:09;5.30;99.90
15455;DHT22;21057;51.024;7.540;2023-02-14T03:21:02;5.20;99.90
15455;DHT22;21057;51.024;7.540;2023-02-14T03:23:35;5.20;99.90
15455;DHT22;21057;51.024;7.540;2023-02-14T03:26:09;5.30;99.90
15455;DHT22;21057;51.024;7.540;2023-02-14T03:28:44;5.30;99.90
15455;DHT22;21057;51.024;7.540;2023-02-14T03:31:17;5.30;99.90
15455;DHT22;21057;51.024;7.540;2023-02-14T03:33:53;5.30;99.90
15455;DHT22;21057;51.024;7.540;2023-02-14T03:36:24;5.30;99.90
15455;DHT22;21057;51.024;7.540;2023-02-14T03:38:59;5.40;99.90
15455;DHT22;21057;51.024;7.540;2023-02-14T03:41:34;5.30;99.90
15455;DHT22;21057;51.024;7.540;2023-02-14T03:44:05;5.30;99.90
15455;DHT22;21057;51.024;7.540;2023-02-14T03:46:40;5.30;99.90
15455;DHT22;21057;51.024;7.540;2023-02-14T03:49:10;5.20;99.90
15455;DHT22;21057;51.024;7.540;2023-02-14T03:51:47;5.30;99.90
15455;DHT22;21057;51.024;7.540;2023-02-14T03:54:16;5.30;99.90
15455;DHT22;21057;51.024;7.540;2023-02-14T03:56:48;5.30;99.90
15455;DHT22;21057;51.024;7.540;2023-02-14T03:59:17;5.40;99.90
15455;DHT22;21057;51.024;7.540;2023-02-14T04:01:48;5.40;99.90
15455;DHT22;21057;51.024;7.540;2023-02-14T04:04:19;5.30;99.90
15455;DHT22;21057;51.024;7.540;2023-02-14T04:06:46;5.30;99.90
15455;DHT22;21057;51.024;7.540;2023-02-14T04:09:15;5.30;99.90
15455;DHT22;21057;51.024;7.540;2023-02-14T04:11:43;5.20;99.90
15455;DHT22;21057;51.024;7.540;2023-02-14T04:14:11;5.10;99.90
15455;DHT22;21057;51.024;7.540;2023-02-14T04:16:38;5.10;99.90
15455;DHT22;21057;51.024;7.540;2023-02-14T04:19:25;5.10;99.90
15455;DHT22;21057;51.024;7.540;2023-02-14T04:21:52;5.00;99.90
15455;DHT22;21057;51.024;7.540;2023-02-14T04:24:20;5.00;99.90
15455;DHT22;21057;51.024;7.540;2023-02-14T04:26:49;5.10;99.90
15455;DHT22;21057;51.024;7.540;2023-02-14T04:29:37;5.10;99.90
15455;DHT22;21057;51.024;7.540;2023-02-14T04:32:05;5.10;99.90
15455;DHT22;21057;51.024;7.540;2023-02-14T04:34:32;5.10;99.90
15455;DHT22;21057;51.024;7.540;2023-02-14T04:36:59;4.80;99.90
15455;DHT22;21057;51.024;7.540;2023-02-14T04:39:27;4.70;99.90
15455;DHT22;21057;51.024;7.540;2023-02-14T04:41:55;4.80;99.90
15455;DHT22;21057;51.024;7.540;2023-02-14T04:44:22;4.80;99.90
15455;DHT22;21057;51.024;7.540;2023-02-14T04:46:49;4.80;99.90
15455;DHT22;21057;51.024;7.540;2023-02-14T04:49:21;4.90;99.90
15455;DHT22;21057;51.024;7.540;2023-02-14T04:51:48;5.00;99.90
15455;DHT22;21057;51.024;7.540;2023-02-14T04:54:14;5.00;99.90
15455;DHT22;21057;51.024;7.540;2023-02-14T04:56:43;5.10;99.90
15455;DHT22;21057;51.024;7.540;2023-02-14T04:59:10;5.00;99.90
15455;DHT22;21057;51.024;7.540;2023-02-14T05:01:36;5.00;99.90
15455;DHT22;21057;51.024;7.540;2023-02-14T05:04:04;4.90;99.90
15455;DHT22;21057;51.024;7.540;2023-02-14T05:06:46;4.90;99.90
15455;DHT22;21057;51.024;7.540;2023-02-14T05:09:13;4.90;99.90
15455;DHT22;21057;51.024;7.540;2023-02-14T05:11:39;4.80;99.90
15455;DHT22;21057;51.024;7.540;2023-02-14T05:14:08;4.80;99.90
15455;DHT22;21057;51.024;7.540;2023-02-14T05:16:37;4.70;99.90
15455;DHT22;21057;51.024;7.540;2023-02-14T05:19:03;4.70;99.90
15455;DHT22;21057;51.024;7.540;2023-02-14T05:21:30;4.70;99.90
15455;DHT22;21057;51.024;7.540;2023-02-14T05:23:58;4.70;99.90
15455;DHT22;21057;51.024;7.540;2023-02-14T05:26:26;4.80;99.90
15455;DHT22;21057;51.024;7.540;2023-02-14T05:28:53;4.80;99.90
15455;DHT22;21057;51.024;7.540;2023-02-14T05:31:22;4.70;99.90
15455;DHT22;21057;51.024;7.540;2023-02-14T05:33:48;4.60;99.90
15455;DHT22;21057;51.024;7.540;2023-02-14T05:36:15;4.50;99.90
15455;DHT22;21057;51.024;7.540;2023-02-14T05:38:42;4.50;99.90
15455;DHT22;21057;51.024;7.540;2023-02-14T05:41:09;4.40;99.90
15455;DHT22;21057;51.024;7.540;2023-02-14T05:43:37;4.30;99.90
15455;DHT22;21057;51.024;7.540;2023-02-14T05:46:04;4.30;99.90
15455;DHT22;21057;51.024;7.540;2023-02-14T05:48:34;4.20;99.90
15455;DHT22;21057;51.024;7.540;2023-02-14T05:51:02;4.00;99.90
15455;DHT22;21057;51.024;7.540;2023-02-14T05:53:29;3.90;99.90
15455;DHT22;21057;51.024;7.540;2023-02-14T05:55:56;3.90;99.90
15455;DHT22;21057;51.024;7.540;2023-02-14T05:58:23;4.00;99.90
15455;DHT22;21057;51.024;7.540;2023-02-14T06:00:50;4.00;99.90
15455;DHT22;21057;51.024;7.540;2023-02-14T06:03:17;4.00;99.90
15455;DHT22;21057;51.024;7.540;2023-02-14T06:05:45;3.90;99.90
15455;DHT22;21057;51.024;7.540;2023-02-14T06:08:12;3.80;99.90
15455;DHT22;21057;51.024;7.540;2023-02-14T06:10:39;4.00;99.90
15455;DHT22;21057;51.024;7.540;2023-02-14T06:13:05;3.90;99.90
15455;DHT22;21057;51.024;7.540;2023-02-14T06:15:33;3.90;99.90
15455;DHT22;21057;51.024;7.540;2023-02-14T06:18:00;3.90;99.90
15455;DHT22;21057;51.024;7.540;2023-02-14T06:20:27;4.10;99.90
15455;DHT22;21057;51.024;7.540;2023-02-14T06:22:57;4.10;99.90
15455;DHT22;21057;51.024;7.540;2023-02-14T06:25:25;4.00;99.90
15455;DHT22;21057;51.024;7.540;2023-02-14T06:27:54;3.90;99.90
15455;DHT22;21057;51.024;7.540;2023-02-14T06:30:21;3.80;99.90
15455;DHT22;21057;51.024;7.540;2023-02-14T06:32:48;3.50;99.90
15455;DHT22;21057;51.024;7.540;2023-02-14T06:35:16;3.40;99.90
15455;DHT22;21057;51.024;7.540;2023-02-14T06:37:43;3.30;99.90
15455;DHT22;21057;51.024;7.540;2023-02-14T06:40:13;3.40;99.90
15455;DHT22;21057;51.024;7.540;2023-02-14T06:42:40;3.40;99.90
15455;DHT22;21057;51.024;7.540;2023-02-14T06:45:08;3.40;99.90
15455;DHT22;21057;51.024;7.540;2023-02-14T06:47:34;3.20;99.90
15455;DHT22;21057;51.024;7.540;2023-02-14T06:50:02;3.20;99.90
15455;DHT22;21057;51.024;7.540;2023-02-14T06:52:29;3.30;99.90
15455;DHT22;21057;51.024;7.540;2023-02-14T06:54:56;3.40;99.90
15455;DHT22;21057;51.024;7.540;2023-02-14T06:57:25;3.60;99.90
15455;DHT22;21057;51.024;7.540;2023-02-14T06:59:51;3.60;99.90
15455;DHT22;21057;51.024;7.540;2023-02-14T07:02:18;3.60;99.90
15455;DHT22;21057;51.024;7.540;2023-02-14T07:04:45;3.50;99.90
15455;DHT22;21057;51.024;7.540;2023-02-14T07:07:12;3.50;99.90
15455;DHT22;21057;51.024;7.540;2023-02-14T07:09:39;3.60;99.90
15455;DHT22;21057;51.024;7.540;2023-02-14T07:12:06;3.60;99.90
15455;DHT22;21057;51.024;7.540;2023-02-14T07:14:34;3.60;99.90
15455;DHT22;21057;51.024;7.540;2023-02-14T07:17:01;3.60;99.90
15455;DHT22;21057;51.024;7.540;2023-02-14T07:19:28;3.60;99.90
15455;DHT22;21057;51.024;7.540;2023-02-14T07:21:55;3.60;99.90
15455;DHT22;21057;51.024;7.540;2023-02-14T07:24:22;3.70;99.90
15455;DHT22;21057;51.024;7.540;2023-02-14T07:26:48;3.60;99.90
15455;DHT22;21057;51.024;7.540;2023-02-14T07:29:15;3.70;99.90
15455;DHT22;21057;51.024;7.540;2023-02-14T07:31:49;3.80;99.90
15455;DHT22;21057;51.024;7.540;2023-02-14T07:34:16;3.90;99.90
15455;DHT22;21057;51.024;7.540;2023-02-14T07:36:43;4.00;99.90
15455;DHT22;21057;51.024;7.540;2023-02-14T07:39:10;4.10;99.90
15455;DHT22;21057;51.024;7.540;2023-02-14T07:41:37;4.40;99.90
15455;DHT22;21057;51.024;7.540;2023-02-14T07:44:07;4.50;99.90
15455;DHT22;21057;51.024;7.540;2023-02-14T07:46:34;4.60;99.90
15455;DHT22;21057;51.024;7.540;2023-02-14T07:49:02;4.70;99.90
15455;DHT22;21057;51.024;7.540;2023-02-14T07:51:29;4.70;99.90
15455;DHT22;21057;51.024;7.540;2023-02-14T07:53:56;4.80;99.90
15455;DHT22;21057;51.024;7.540;2023-02-14T07:56:23;4.80;99.90
15455;DHT22;21057;51.024;7.540;2023-02-14T07:58:56;4.80;99.90
15455;DHT22;21057;51.024;7.540;2023-02-14T08:01:23;4.70;99.90
15455;DHT22;21057;51.024;7.540;2023-02-14T08:03:49;4.70;99.90
15455;DHT22;21057;51.024;7.540;2023-02-14T08:06:19;4.60;99.90
15455;DHT22;21057;51.024;7.540;2023-02-14T08:08:46;4.50;99.90
15455;DHT22;21057;51.024;7.540;2023-02-14T08:11:14;4.40;99.90
15455;DHT22;21057;51.024;7.540;2023-02-14T08:14:01;4.30;99.90
15455;DHT22;21057;51.024;7.540;2023-02-14T08:16:28;4.30;99.90
15455;DHT22;21057;51.024;7.540;2023-02-14T08:18:56;4.30;99.90
15455;DHT22;21057;51.024;7.540;2023-02-14T08:21:25;4.20;99.90
15455;DHT22;21057;51.024;7.540;2023-02-14T08:23:52;4.30;99.90
15455;DHT22;21057;51.024;7.540;2023-02-14T08:26:19;4.30;99.90
15455;DHT22;21057;51.024;7.540;2023-02-14T08:28:46;4.30;99.90
15455;DHT22;21057;51.024;7.540;2023-02-14T08:31:21;4.40;99.90
15455;DHT22;21057;51.024;7.540;2023-02-14T08:33:48;4.40;99.90
15455;DHT22;21057;51.024;7.540;2023-02-14T08:36:15;4.50;99.90
15455;DHT22;21057;51.024;7.540;2023-02-14T08:38:44;4.60;99.90
15455;DHT22;21057;51.024;7.540;2023-02-14T08:41:12;4.60;99.90
15455;DHT22;21057;51.024;7.540;2023-02-14T08:43:39;4.70;99.90
15455;DHT22;21057;51.024;7.540;2023-02-14T08:46:08;4.70;99.90
15455;DHT22;21057;51.024;7.540;2023-02-14T08:48:35;4.70;99.90
15455;DHT22;21057;51.024;7.540;2023-02-14T08:51:04;4.70;99.90
15455;DHT22;21057;51.024;7.540;2023-02-14T08:53:31;4.80;99.90
15455;DHT22;21057;51.024;7.540;2023-02-14T08:56:03;4.80;99.90
15455;DHT22;21057;51.024;7.540;2023-02-14T08:58:31;4.80;99.90
15455;DHT22;21057;51.024;7.540;2023-02-14T09:01:07;4.90;99.90
15455;DHT22;21057;51.024;7.540;2023-02-14T09:03:36;5.10;99.90
15455;DHT22;21057;51.024;7.540;2023-02-14T09:06:05;5.20;99.90
15455;DHT22;21057;51.024;7.540;2023-02-14T09:08:32;5.40;99.90
15455;DHT22;21057;51.024;7.540;2023-02-14T09:11:07;5.40;99.90
15455;DHT22;21057;51.024;7.540;2023-02-14T09:13:34;5.50;99.90
15455;DHT22;21057;51.024;7.540;2023-02-14T09:16:02;5.50;99.90
15455;DHT22;21057;51.024;7.540;2023-02-14T09:18:30;5.50;99.90
15455;DHT22;21057;51.024;7.540;2023-02-14T09:20:57;5.60;99.90
15455;DHT22;21057;51.024;7.540;2023-02-14T09:23:24;5.70;99.90
15455;DHT22;21057;51.024;7.540;2023-02-14T09:25:59;5.80;99.90
15455;DHT22;21057;51.024;7.540;2023-02-14T09:28:29;5.90;99.90
15455;DHT22;21057;51.024;7.540;2023-02-14T09:30:58;6.10;99.90
15455;DHT22;21057;51.024;7.540;2023-02-14T09:33:26;6.10;99.90
15455;DHT22;21057;51.024;7.540;2023-02-14T09:35:56;6.30;99.90
15455;DHT22;21057;51.024;7.540;2023-02-14T09:38:41;6.30;99.90
15455;DHT22;21057;51.024;7.540;2023-02-14T09:41:11;6.30;99.90
15455;DHT22;21057;51.024;7.540;2023-02-14T09:44:09;6.50;99.90
15455;DHT22;21057;51.024;7.540;2023-02-14T09:46:55;6.60;99.90
15455;DHT22;21057;51.024;7.540;2023-02-14T09:52:31;6.70;99.90
15455;DHT22;21057;51.024;7.540;2023-02-14T09:55:00;6.70;99.90
15455;DHT22;21057;51.024;7.540;2023-02-14T09:57:35;7.10;99.90
15455;DHT22;21057;51.024;7.540;2023-02-14T10:00:16;7.60;99.90
15455;DHT22;21057;51.024;7.540;2023-02-14T10:02:56;8.80;99.90
15455;DHT22;21057;51.024;7.540;2023-02-14T10:05:26;10.30;99.90
15455;DHT22;21057;51.024;7.540;2023-02-14T10:07:59;11.60;99.90
15455;DHT22;21057;51.024;7.540;2023-02-14T10:10:30;12.50;99.90
15455;DHT22;21057;51.024;7.540;2023-02-14T10:13:04;13.30;99.90
15455;DHT22;21057;51.024;7.540;2023-02-14T10:15:38;14.20;99.90
15455;DHT22;21057;51.024;7.540;2023-02-14T10:18:19;14.60;99.90
15455;DHT22;21057;51.024;7.540;2023-02-14T10:20:49;15.00;99.90
15455;DHT22;21057;51.024;7.540;2023-02-14T10:23:31;15.40;98.90
15455;DHT22;21057;51.024;7.540;2023-02-14T10:26:02;15.50;99.80
15455;DHT22;21057;51.024;7.540;2023-02-14T10:28:32;16.20;97.30
15455;DHT22;21057;51.024;7.540;2023-02-14T10:31:22;16.50;93.40
15455;DHT22;21057;51.024;7.540;2023-02-14T10:33:52;16.90;94.50
15455;DHT22;21057;51.024;7.540;2023-02-14T10:36:25;17.00;93.30
15455;DHT22;21057;51.024;7.540;2023-02-14T10:39:08;17.00;93.90
15455;DHT22;21057;51.024;7.540;2023-02-14T10:41:46;17.30;93.00
15455;DHT22;21057;51.024;7.540;2023-02-14T10:44:34;17.50;90.10
15455;DHT22;21057;51.024;7.540;2023-02-14T10:47:27;17.30;91.40
15455;DHT22;21057;51.024;7.540;2023-02-14T10:50:10;17.80;88.80
15455;DHT22;21057;51.024;7.540;2023-02-14T10:52:51;17.90;88.40
15455;DHT22;21057;51.024;7.540;2023-02-14T10:55:37;18.20;84.00
15455;DHT22;21057;51.024;7.540;2023-02-14T10:58:08;17.70;86.90
15455;DHT22;21057;51.024;7.540;2023-02-14T11:00:45;17.60;85.90
15455;DHT22;21057;51.024;7.540;2023-02-14T11:03:20;17.70;88.50
15455;DHT22;21057;51.024;7.540;2023-02-14T11:05:48;17.90;83.20
15455;DHT22;21057;51.024;7.540;2023-02-14T11:08:23;18.30;80.30
15455;DHT22;21057;51.024;7.540;2023-02-14T11:10:51;17.20;83.80
15455;DHT22;21057;51.024;7.540;2023-02-14T11:13:32;16.60;86.40
15455;DHT22;21057;51.024;7.540;2023-02-14T11:16:01;16.20;90.20
15455;DHT22;21057;51.024;7.540;2023-02-14T11:18:31;15.80;91.60
15455;DHT22;21057;51.024;7.540;2023-02-14T11:21:06;15.60;92.50
15455;DHT22;21057;51.024;7.540;2023-02-14T11:23:36;15.50;91.80
15455;DHT22;21057;51.024;7.540;2023-02-14T11:26:06;15.00;92.70
15455;DHT22;21057;51.024;7.540;2023-02-14T11:28:36;14.60;94.70
15455;DHT22;21057;51.024;7.540;2023-02-14T11:31:10;14.40;95.40
15455;DHT22;21057;51.024;7.540;2023-02-14T11:33:41;14.10;96.40
15455;DHT22;21057;51.024;7.540;2023-02-14T11:36:12;13.90;97.60
15455;DHT22;21057;51.024;7.540;2023-02-14T11:38:54;14.20;98.00
15455;DHT22;21057;51.024;7.540;2023-02-14T11:41:21;14.90;95.20
15455;DHT22;21057;51.024;7.540;2023-02-14T11:43:48;14.80;94.10
15455;DHT22;21057;51.024;7.540;2023-02-14T11:46:25;14.70;95.10
15455;DHT22;21057;51.024;7.540;2023-02-14T11:48:59;14.20;95.40
15455;DHT22;21057;51.024;7.540;2023-02-14T11:51:33;13.30;98.70
15455;DHT22;21057;51.024;7.540;2023-02-14T11:54:03;12.80;99.90
15455;DHT22;21057;51.024;7.540;2023-02-14T11:56:49;12.70;99.90
15455;DHT22;21057;51.024;7.540;2023-02-14T11:59:26;12.50;99.90
15455;DHT22;21057;51.024;7.540;2023-02-14T12:01:54;12.00;99.90
15455;DHT22;21057;51.024;7.540;2023-02-14T12:04:29;12.00;99.90
15455;DHT22;21057;51.024;7.540;2023-02-14T12:07:12;11.80;99.90
15455;DHT22;21057;51.024;7.540;2023-02-14T12:09:40;11.70;99.90
15455;DHT22;21057;51.024;7.540;2023-02-14T12:12:15;11.70;99.90
15455;DHT22;21057;51.024;7.540;2023-02-14T12:14:42;11.80;99.90
15455;DHT22;21057;51.024;7.540;2023-02-14T12:17:19;11.90;99.90
15455;DHT22;21057;51.024;7.540;2023-02-14T12:19:52;11.80;99.90
15455;DHT22;21057;51.024;7.540;2023-02-14T12:22:23;11.90;99.90
15455;DHT22;21057;51.024;7.540;2023-02-14T12:24:58;11.80;99.90
15455;DHT22;21057;51.024;7.540;2023-02-14T12:27:34;11.80;99.90
15455;DHT22;21057;51.024;7.540;2023-02-14T12:30:08;11.80;99.90
15455;DHT22;21057;51.024;7.540;2023-02-14T12:32:44;11.90;99.90
15455;DHT22;21057;51.024;7.540;2023-02-14T12:35:17;11.70;99.90
15455;DHT22;21057;51.024;7.540;2023-02-14T12:37:58;11.80;99.90
15455;DHT22;21057;51.024;7.540;2023-02-14T12:40:36;12.00;99.90
15455;DHT22;21057;51.024;7.540;2023-02-14T12:43:21;11.80;99.90
15455;DHT22;21057;51.024;7.540;2023-02-14T12:46:11;11.90;99.90
15455;DHT22;21057;51.024;7.540;2023-02-14T12:48:53;11.70;99.90
15455;DHT22;21057;51.024;7.540;2023-02-14T12:51:27;11.90;99.90
15455;DHT22;21057;51.024;7.540;2023-02-14T12:54:17;11.90;99.90
15455;DHT22;21057;51.024;7.540;2023-02-14T12:56:54;12.10;99.90
15455;DHT22;21057;51.024;7.540;2023-02-14T12:59:30;12.10;99.90
15455;DHT22;21057;51.024;7.540;2023-02-14T13:05:14;12.10;99.90
15455;DHT22;21057;51.024;7.540;2023-02-14T13:07:55;12.10;99.90
15455;DHT22;21057;51.024;7.540;2023-02-14T13:10:34;12.00;99.90
15455;DHT22;21057;51.024;7.540;2023-02-14T13:13:17;12.10;99.90
15455;DHT22;21057;51.024;7.540;2023-02-14T13:15:55;12.20;99.90
15455;DHT22;21057;51.024;7.540;2023-02-14T13:18:45;12.40;99.90
15455;DHT22;21057;51.024;7.540;2023-02-14T13:21:18;12.40;99.90
15455;DHT22;21057;51.024;7.540;2023-02-14T13:23:50;12.60;99.90
15455;DHT22;21057;51.024;7.540;2023-02-14T13:26:30;12.40;99.90
15455;DHT22;21057;51.024;7.540;2023-02-14T13:29:02;12.40;99.90
15455;DHT22;21057;51.024;7.540;2023-02-14T13:31:31;12.50;99.90
15455;DHT22;21057;51.024;7.540;2023-02-14T13:34:02;12.60;99.90
15455;DHT22;21057;51.024;7.540;2023-02-14T13:36:32;12.60;99.90
15455;DHT22;21057;51.024;7.540;2023-02-14T13:39:03;12.60;99.90
15455;DHT22;21057;51.024;7.540;2023-02-14T13:41:31;12.50;99.90
15455;DHT22;21057;51.024;7.540;2023-02-14T13:43:59;12.50;99.90
15455;DHT22;21057;51.024;7.540;2023-02-14T13:46:49;12.50;99.90
15455;DHT22;21057;51.024;7.540;2023-02-14T13:49:26;12.50;99.90
15455;DHT22;21057;51.024;7.540;2023-02-14T13:51:55;12.70;99.90
15455;DHT22;21057;51.024;7.540;2023-02-14T13:54:39;13.00;99.90
15455;DHT22;21057;51.024;7.540;2023-02-14T13:57:26;13.20;99.90
15455;DHT22;21057;51.024;7.540;2023-02-14T14:00:34;14.00;99.90
15455;DHT22;21057;51.024;7.540;2023-02-14T14:03:05;14.90;99.90
15455;DHT22;21057;51.024;7.540;2023-02-14T14:06:01;15.70;99.00
15455;DHT22;21057;51.024;7.540;2023-02-14T14:08:45;16.30;96.30
15455;DHT22;21057;51.024;7.540;2023-02-14T14:11:48;16.90;95.00
15455;DHT22;21057;51.024;7.540;2023-02-14T14:14:35;17.20;92.80
15455;DHT22;21057;51.024;7.540;2023-02-14T14:17:20;17.60;91.80
15455;DHT22;21057;51.024;7.540;2023-02-14T14:19:49;18.10;88.30
15455;DHT22;21057;51.024;7.540;2023-02-14T14:22:19;18.10;88.20
15455;DHT22;21057;51.024;7.540;2023-02-14T14:24:56;18.10;87.60
15455;DHT22;21057;51.024;7.540;2023-02-14T14:27:28;18.20;87.00
15455;DHT22;21057;51.024;7.540;2023-02-14T14:29:58;18.30;84.30
15455;DHT22;21057;51.024;7.540;2023-02-14T14:32:28;18.80;83.30
15455;DHT22;21057;51.024;7.540;2023-02-14T14:34:57;18.80;84.00
15455;DHT22;21057;51.024;7.540;2023-02-14T14:37:25;18.70;85.90
15455;DHT22;21057;51.024;7.540;2023-02-14T14:39:54;18.40;82.00
15455;DHT22;21057;51.024;7.540;2023-02-14T14:42:23;18.50;84.00
15455;DHT22;21057;51.024;7.540;2023-02-14T14:44:54;18.20;83.80
15455;DHT22;21057;51.024;7.540;2023-02-14T14:47:23;18.10;81.50
15455;DHT22;21057;51.024;7.540;2023-02-14T14:49:52;17.60;82.30
15455;DHT22;21057;51.024;7.540;2023-02-14T14:52:33;17.30;82.70
15455;DHT22;21057;51.024;7.540;2023-02-14T14:55:01;16.50;86.80
15455;DHT22;21057;51.024;7.540;2023-02-14T14:57:29;16.20;88.40
15455;DHT22;21057;51.024;7.540;2023-02-14T15:00:20;15.50;91.00
15455;DHT22;21057;51.024;7.540;2023-02-14T15:03:04;14.90;93.30
15455;DHT22;21057;51.024;7.540;2023-02-14T15:05:34;14.60;92.90
15455;DHT22;21057;51.024;7.540;2023-02-14T15:08:15;14.10;94.40
15455;DHT22;21057;51.024;7.540;2023-02-14T15:10:42;14.00;94.70
15455;DHT22;21057;51.024;7.540;2023-02-14T15:13:14;14.00;94.70
15455;DHT22;21057;51.024;7.540;2023-02-14T15:16:06;13.80;95.10
15455;DHT22;21057;51.024;7.540;2023-02-14T15:18:33;13.70;95.70
15455;DHT22;21057;51.024;7.540;2023-02-14T15:21:02;13.50;96.80
15455;DHT22;21057;51.024;7.540;2023-02-14T15:23:29;13.30;97.00
15455;DHT22;21057;51.024;7.540;2023-02-14T15:25:57;13.10;98.60
15455;DHT22;21057;51.024;7.540;2023-02-14T15:28:29;12.90;99.70
15455;DHT22;21057;51.024;7.540;2023-02-14T15:30:58;12.70;99.90
15455;DHT22;21057;51.024;7.540;2023-02-14T15:33:27;12.60;99.90
15455;DHT22;21057;51.024;7.540;2023-02-14T15:35:56;12.50;99.90
15455;DHT22;21057;51.024;7.540;2023-02-14T15:38:25;12.40;99.90
15455;DHT22;21057;51.024;7.540;2023-02-14T15:40:53;12.30;99.90
15455;DHT22;21057;51.024;7.540;2023-02-14T15:43:27;12.10;99.90
15455;DHT22;21057;51.024;7.540;2023-02-14T15:46:15;12.10;99.90
15455;DHT22;21057;51.024;7.540;2023-02-14T15:48:45;12.10;99.90
15455;DHT22;21057;51.024;7.540;2023-02-14T15:51:18;12.20;99.90
15455;DHT22;21057;51.024;7.540;2023-02-14T15:53:50;12.20;99.90
15455;DHT22;21057;51.024;7.540;2023-02-14T15:56:20;12.10;99.90
15455;DHT22;21057;51.024;7.540;2023-02-14T15:58:56;11.90;99.90
15455;DHT22;21057;51.024;7.540;2023-02-14T16:01:24;11.80;99.90
15455;DHT22;21057;51.024;7.540;2023-02-14T16:03:54;11.70;99.90
15455;DHT22;21057;51.024;7.540;2023-02-14T16:06:34;11.60;99.90
15455;DHT22;21057;51.024;7.540;2023-02-14T16:09:04;11.60;99.90
15455;DHT22;21057;51.024;7.540;2023-02-14T16:11:32;11.40;99.90
15455;DHT22;21057;51.024;7.540;2023-02-14T16:14:19;11.40;99.90
15455;DHT22;21057;51.024;7.540;2023-02-14T16:17:02;11.30;99.90
15455;DHT22;21057;51.024;7.540;2023-02-14T16:19:32;11.20;99.90